Time;durP1;ratioP1;P1;durP2;ratioP2;P2;SDS_P1;SDS_P2;PMS_P1;PMS_P2;Temp;Humidity;BMP_temperature;BMP_pressure;BME280_temperature;BME280_humidity;BME280_pressure;Samples;Min_cycle;Max_cycle;Signal;HPM_P1;HPM_P2
2024/04/10 00:00:20;;;;;;;0.30;0.20;;;;;;;9.97;82.03;100845.16;5280001;27;20545;-50
2024/04/10 00:02:47;;;;;;;0.30;0.20;;;;;;;9.92;81.94;100841.72;5279869;27;20484;-50
2024/04/10 00:05:14;;;;;;;0.30;0.20;;;;;;;9.93;81.83;100845.25;5279790;27;20537;-49
2024/04/10 00:07:41;;;;;;;0.30;0.20;;;;;;;9.93;81.65;100845.25;5280008;27;20554;-51
2024/04/10 00:10:08;;;;;;;0.30;0.20;;;;;;;9.96;81.58;100843.41;5279902;27;20472;-50
2024/04/10 00:12:35;;;;;;;0.30;0.20;;;;;;;9.97;82.19;100845.16;5279847;27;20484;-50
2024/04/10 00:15:01;;;;;;;0.30;0.20;;;;;;;9.99;81.70;100847.78;5277742;27;20485;-50
2024/04/10 00:17:28;;;;;;;0.30;0.20;;;;;;;10.00;81.40;100847.75;5279895;27;20536;-50
2024/04/10 00:19:55;;;;;;;0.30;0.20;;;;;;;9.94;81.66;100847.00;5279813;27;20481;-50
2024/04/10 00:22:22;;;;;;;0.30;0.20;;;;;;;10.06;81.32;100862.75;5279739;27;20488;-50
2024/04/10 00:24:51;;;;;;;0.30;0.20;;;;;;;9.89;81.55;100871.00;5279464;27;20481;-50
2024/04/10 00:27:18;;;;;;;0.30;0.20;;;;;;;9.98;81.20;100868.16;5279798;27;20524;-51
2024/04/10 00:29:45;;;;;;;0.30;0.20;;;;;;;10.01;81.26;100856.63;5279384;27;20473;-51
2024/04/10 00:32:11;;;;;;;0.30;0.20;;;;;;;9.98;81.83;100870.81;5279719;27;20592;-51
2024/04/10 00:34:38;;;;;;;0.30;0.20;;;;;;;9.95;81.65;100867.34;5279366;27;20553;-50
2024/04/10 00:37:05;;;;;;;0.30;0.20;;;;;;;9.93;82.18;100869.16;5279815;27;20536;-50
2024/04/10 00:39:32;;;;;;;0.40;0.20;;;;;;;9.94;81.82;100863.81;5279463;27;20605;-50
2024/04/10 00:41:59;;;;;;;0.30;0.20;;;;;;;9.94;81.47;100874.44;5279405;27;20538;-50
2024/04/10 00:44:26;;;;;;;0.30;0.20;;;;;;;9.92;81.78;100876.25;5279118;27;20484;-50
2024/04/10 00:46:53;;;;;;;0.30;0.20;;;;;;;9.84;81.94;100872.81;5279464;27;20525;-50
2024/04/10 00:49:21;;;;;;;0.30;0.20;;;;;;;9.89;82.75;100875.44;5279403;27;20540;-50
2024/04/10 00:51:49;;;;;;;0.30;0.20;;;;;;;9.89;82.61;100872.78;5279463;27;20918;-50
2024/04/10 00:54:17;;;;;;;0.30;0.20;;;;;;;9.86;82.29;100873.69;5278760;27;20488;-51
2024/04/10 00:56:44;;;;;;;0.30;0.20;;;;;;;9.70;83.35;100885.44;5314488;21;20626;-48
2024/04/10 00:59:11;;;;;;;0.30;0.20;;;;;;;9.67;83.01;100881.06;5295475;26;20591;-48
2024/04/10 01:01:37;;;;;;;0.30;0.20;;;;;;;9.70;83.08;100885.44;5313376;26;20590;-49
2024/04/10 01:04:04;;;;;;;0.30;0.20;;;;;;;9.61;83.56;100888.25;5313332;26;20531;-49
2024/04/10 01:06:31;;;;;;;0.30;0.20;;;;;;;9.54;84.40;100894.53;5313624;26;20599;-48
2024/04/10 01:08:58;;;;;;;0.30;0.20;;;;;;;9.68;83.72;100890.78;5313995;26;20487;-48
2024/04/10 01:11:25;;;;;;;0.30;0.20;;;;;;;9.66;83.18;100897.91;5310995;27;21081;-48
2024/04/10 01:13:52;;;;;;;0.30;0.20;;;;;;;9.55;83.61;100890.97;5313429;26;20472;-48
2024/04/10 01:16:19;;;;;;;0.30;0.20;;;;;;;9.47;84.18;100889.34;5313360;26;20483;-48
2024/04/10 01:18:45;;;;;;;0.30;0.20;;;;;;;9.46;84.85;100884.06;5313587;26;20594;-48
2024/04/10 01:21:14;;;;;;;0.30;0.20;;;;;;;9.55;84.47;100891.84;5312432;26;20527;-48
2024/04/10 01:23:40;;;;;;;0.30;0.20;;;;;;;9.54;84.80;100898.06;5311807;27;20943;-48
2024/04/10 01:26:07;;;;;;;0.30;0.20;;;;;;;9.57;85.11;100887.41;5313323;26;20483;-48
2024/04/10 01:28:33;;;;;;;0.30;0.20;;;;;;;9.40;84.90;100884.13;5313335;26;20547;-48
2024/04/10 01:31:00;;;;;;;0.30;0.20;;;;;;;9.47;84.71;100883.16;5311432;27;20524;-48
2024/04/10 01:33:27;;;;;;;0.30;0.20;;;;;;;9.49;84.88;100891.97;5313153;26;20476;-48
2024/04/10 01:35:54;;;;;;;0.30;0.20;;;;;;;9.65;84.35;100885.53;5299566;26;20489;-49
2024/04/10 01:38:23;;;;;;;0.30;0.20;;;;;;;9.55;83.95;100902.47;5312192;26;20487;-48
2024/04/10 01:40:50;;;;;;;0.30;0.20;;;;;;;9.52;84.46;100901.66;5313102;26;20530;-49
2024/04/10 01:43:17;;;;;;;0.30;0.20;;;;;;;9.58;83.68;100907.72;5312862;26;20483;-49
2024/04/10 01:45:44;;;;;;;0.30;0.20;;;;;;;9.50;84.31;100912.28;5312395;26;20491;-48
2024/04/10 01:48:10;;;;;;;0.30;0.20;;;;;;;9.39;84.40;100919.53;5312992;26;20479;-48
2024/04/10 01:50:37;;;;;;;0.30;0.20;;;;;;;9.57;84.07;100913.94;5312674;26;20491;-49
2024/04/10 01:53:05;;;;;;;0.30;0.20;;;;;;;9.58;83.97;100914.81;5310394;26;21056;-48
2024/04/10 01:55:31;;;;;;;0.30;0.20;;;;;;;9.54;83.80;100921.09;5313083;26;20495;-49
2024/04/10 01:57:58;;;;;;;0.30;0.20;;;;;;;9.52;84.00;100920.22;5308713;26;20491;-49
2024/04/10 02:00:25;;;;;;;0.30;0.20;;;;;;;9.24;85.39;100927.69;5313059;26;21081;-48
2024/04/10 02:02:52;;;;;;;0.30;0.20;;;;;;;9.31;84.49;100929.34;5313006;26;20528;-48
2024/04/10 02:05:19;;;;;;;0.30;0.20;;;;;;;8.70;88.08;100933.59;5312751;26;20571;-49
2024/04/10 02:07:46;;;;;;;0.30;0.20;;;;;;;8.44;89.34;100940.94;5312211;26;20528;-48
2024/04/10 02:10:13;;;;;;;0.30;0.20;;;;;;;8.60;89.85;100945.19;5312358;26;20493;-49
2024/04/10 02:12:39;;;;;;;0.30;0.20;;;;;;;8.23;90.29;100944.63;5311814;26;20475;-48
2024/04/10 02:15:06;;;;;;;0.30;0.20;;;;;;;8.21;90.59;100949.91;5312956;26;20527;-49
2024/04/10 02:17:33;;;;;;;0.30;0.20;;;;;;;8.37;89.68;100948.09;5312391;26;20491;-49
2024/04/10 02:20:00;;;;;;;0.30;0.20;;;;;;;8.29;90.56;100957.81;5312478;26;20479;-49
2024/04/10 02:22:27;;;;;;;0.30;0.20;;;;;;;8.58;89.47;100963.75;5312664;26;20599;-48
2024/04/10 02:24:54;;;;;;;0.30;0.20;;;;;;;8.70;89.19;100972.50;5312445;26;20524;-49
2024/04/10 02:27:21;;;;;;;0.30;0.20;;;;;;;8.63;88.62;100962.81;5310493;26;20479;-49
2024/04/10 02:29:47;;;;;;;0.30;0.20;;;;;;;8.50;88.26;100970.91;5312380;26;20524;-49
2024/04/10 02:32:15;;;;;;;0.30;0.20;;;;;;;8.48;88.91;100970.03;5303377;26;20543;-49
2024/04/10 02:34:42;;;;;;;0.30;0.20;;;;;;;8.41;89.00;100971.00;5309307;27;20495;-49
2024/04/10 02:37:08;;;;;;;0.30;0.20;;;;;;;8.43;88.99;100973.63;5312307;26;20539;-49
2024/04/10 02:39:36;;;;;;;0.30;0.20;;;;;;;8.31;89.34;100985.16;5312007;26;20487;-49
2024/04/10 02:42:02;;;;;;;0.30;0.20;;;;;;;8.19;89.29;100970.25;5312024;26;20475;-49
2024/04/10 02:44:29;;;;;;;0.30;0.20;;;;;;;7.97;89.74;100972.19;5310832;26;20531;-49
2024/04/10 02:46:56;;;;;;;0.30;0.20;;;;;;;7.92;91.23;100978.38;5312129;26;20948;-49
2024/04/10 02:49:23;;;;;;;0.30;0.20;;;;;;;7.88;90.81;100980.19;5312242;26;20560;-49
2024/04/10 02:51:49;;;;;;;0.30;0.20;;;;;;;7.71;91.43;100987.34;5312278;26;20483;-48
2024/04/10 02:54:16;;;;;;;0.30;0.20;;;;;;;7.83;93.24;101008.47;5312329;26;20524;-49
2024/04/10 02:56:42;;;;;;;0.30;0.20;;;;;;;7.90;91.59;100998.69;5311949;26;20483;-49
2024/04/10 02:59:09;;;;;;;0.30;0.20;;;;;;;7.91;91.72;101003.09;5294127;26;20941;-49
2024/04/10 03:01:36;;;;;;;0.30;0.20;;;;;;;7.97;92.55;101013.66;5309464;26;20481;-49
2024/04/10 03:04:02;;;;;;;0.30;0.20;;;;;;;7.43;94.17;101016.59;5310634;26;20483;-49
2024/04/10 03:06:29;;;;;;;0.30;0.20;;;;;;;7.77;93.71;101013.75;5314448;26;20954;-49
2024/04/10 03:08:56;;;;;;;0.30;0.20;;;;;;;7.45;94.48;101027.16;5317681;27;20564;-49
2024/04/10 03:11:23;;;;;;;0.30;0.20;;;;;;;7.69;93.79;101026.19;5322680;26;20479;-49
2024/04/10 03:13:52;;;;;;;0.30;0.20;;;;;;;7.82;91.74;101034.94;5308746;26;20471;-50
2024/04/10 03:16:19;;;;;;;0.30;0.20;;;;;;;7.49;92.16;101034.19;5310748;26;20850;-49
2024/04/10 03:18:46;;;;;;;0.30;0.20;;;;;;;7.71;92.30;101037.63;5311595;26;20479;-49
2024/04/10 03:21:13;;;;;;;0.30;0.20;;;;;;;7.70;92.33;101033.22;5310736;26;20487;-49
2024/04/10 03:23:39;;;;;;;0.30;0.20;;;;;;;7.41;91.55;101042.16;5312011;26;20534;-49
2024/04/10 03:26:08;;;;;;;0.30;0.20;;;;;;;7.15;91.63;101054.59;5310536;26;20547;-49
2024/04/10 03:28:35;;;;;;;0.30;0.20;;;;;;;7.29;92.11;101065.13;5312000;26;20491;-49
2024/04/10 03:31:08;;;;;;;0.30;0.20;;;;;;;7.19;92.02;101066.91;5311743;26;20479;-48
2024/04/10 03:33:35;;;;;;;0.30;0.20;;;;;;;7.40;91.98;101069.50;5312212;26;20527;-49
2024/04/10 03:36:06;;;;;;;0.30;0.20;;;;;;;7.17;92.04;101073.97;5311269;26;20580;-49
2024/04/10 03:38:33;;;;;;;0.30;0.20;;;;;;;7.23;92.01;101067.75;5311866;26;20519;-49
2024/04/10 03:41:00;;;;;;;0.30;0.20;;;;;;;7.18;91.82;101077.47;5311684;26;21084;-49
2024/04/10 03:43:27;;;;;;;0.30;0.20;;;;;;;6.72;92.34;101061.69;5313229;26;20475;-48
2024/04/10 03:45:54;;;;;;;0.30;0.20;;;;;;;6.81;92.29;101075.75;5314789;26;20896;-49
2024/04/10 03:48:21;;;;;;;0.30;0.20;;;;;;;6.72;92.60;101073.13;5317437;26;20471;-49
2024/04/10 03:50:48;;;;;;;0.30;0.20;;;;;;;6.52;92.31;101075.75;5318620;26;20491;-49
2024/04/10 03:53:15;;;;;;;0.30;0.20;;;;;;;6.50;92.81;101085.44;5317584;26;20475;-49
2024/04/10 03:55:42;;;;;;;0.30;0.20;;;;;;;6.55;92.32;101088.09;5315825;26;20986;-49
2024/04/10 03:58:09;;;;;;;0.30;0.20;;;;;;;6.53;92.68;101096.00;5306296;26;20489;-49
2024/04/10 04:00:35;;;;;;;0.30;0.20;;;;;;;6.77;93.96;101099.53;5312672;27;20539;-49
2024/04/10 04:03:03;;;;;;;0.30;0.20;;;;;;;6.51;92.68;101104.81;5313278;26;20543;-48
2024/04/10 04:05:29;;;;;;;0.30;0.20;;;;;;;6.33;93.34;101110.97;5316845;26;21040;-49
2024/04/10 04:07:56;;;;;;;0.30;0.20;;;;;;;6.21;93.37;101113.56;5317865;26;20475;-54
2024/04/10 04:10:23;;;;;;;0.30;0.20;;;;;;;6.31;93.50;101119.75;5317950;26;20479;-49
2024/04/10 04:12:49;;;;;;;0.30;0.17;;;;;;;6.53;93.59;101125.06;5316046;26;20479;-49
2024/04/10 04:15:16;;;;;;;0.30;0.20;;;;;;;6.41;92.74;101125.03;5312668;26;20602;-49
2024/04/10 04:17:43;;;;;;;0.30;0.20;;;;;;;6.23;92.95;101128.53;5316351;26;20890;-49
2024/04/10 04:20:10;;;;;;;0.30;0.20;;;;;;;6.17;93.25;101135.56;5317179;26;20543;-49
2024/04/10 04:22:37;;;;;;;0.30;0.20;;;;;;;6.04;93.27;101142.56;5319512;26;20480;-49
2024/04/10 04:25:05;;;;;;;0.30;0.20;;;;;;;6.01;92.78;101147.78;5319483;26;20467;-49
2024/04/10 04:27:32;;;;;;;0.30;0.20;;;;;;;6.01;93.17;101146.91;5319035;26;20543;-48
2024/04/10 04:29:59;;;;;;;0.30;0.20;;;;;;;6.04;93.82;101166.31;5317845;26;20476;-49
2024/04/10 04:32:26;;;;;;;0.30;0.20;;;;;;;6.08;93.02;101169.84;5317657;26;20594;-50
2024/04/10 04:34:54;;;;;;;0.30;0.20;;;;;;;6.25;92.95;101170.75;5297584;27;20519;-49
2024/04/10 04:37:20;;;;;;;0.30;0.20;;;;;;;6.20;92.54;101170.75;5319424;26;20487;-49
2024/04/10 04:39:47;;;;;;;0.30;0.20;;;;;;;5.96;93.05;101180.34;5318193;26;20479;-49
2024/04/10 04:42:14;;;;;;;0.30;0.20;;;;;;;6.00;93.72;101174.19;5318667;26;20531;-49
2024/04/10 04:44:41;;;;;;;0.30;0.20;;;;;;;5.90;94.21;101178.56;5320570;26;20528;-49
2024/04/10 04:47:08;;;;;;;0.30;0.20;;;;;;;5.99;94.43;101199.69;5321502;26;20536;-50
2024/04/10 04:49:35;;;;;;;0.30;0.20;;;;;;;5.97;94.82;101209.38;5321989;26;20531;-49
2024/04/10 04:52:02;;;;;;;0.30;0.20;;;;;;;5.85;95.06;101207.50;5320951;27;20590;-49
2024/04/10 04:54:29;;;;;;;0.30;0.20;;;;;;;5.89;94.62;101209.31;5323577;26;20535;-49
2024/04/10 04:56:56;;;;;;;0.30;0.20;;;;;;;5.88;94.71;101207.50;5322791;26;20527;-49
2024/04/10 04:59:22;;;;;;;0.30;0.20;;;;;;;5.82;94.97;101211.88;5322825;26;20532;-49
2024/04/10 05:01:49;;;;;;;0.30;0.20;;;;;;;5.95;94.38;101221.66;5323353;26;20528;-49
2024/04/10 05:07:01;;;;;;;0.30;0.20;;;;;;;6.01;94.07;101224.31;5323665;26;21018;-49
2024/04/10 05:09:28;;;;;;;0.30;0.20;;;;;;;5.99;95.65;101227.84;5323923;26;20480;-49
2024/04/10 05:11:55;;;;;;;0.30;0.20;;;;;;;6.04;95.90;101228.75;5323440;26;20866;-49
2024/04/10 05:14:24;;;;;;;0.30;0.20;;;;;;;6.21;96.53;101227.06;5322476;26;20590;-49
2024/04/10 05:16:50;;;;;;;0.30;0.20;;;;;;;6.06;98.76;101238.44;5317850;26;20531;-49
2024/04/10 05:19:17;;;;;;;0.30;0.20;;;;;;;6.01;100.00;101237.53;5317138;26;20602;-49
2024/04/10 05:21:43;;;;;;;0.30;0.20;;;;;;;6.26;99.39;101249.09;5321375;26;20475;-49
2024/04/10 05:24:10;;;;;;;0.30;0.20;;;;;;;6.41;97.23;101248.25;5321874;26;20479;-49
2024/04/10 05:26:37;;;;;;;0.30;0.20;;;;;;;6.51;96.70;101244.78;5319581;26;20521;-49
2024/04/10 05:29:03;;;;;;;0.30;0.20;;;;;;;6.66;96.34;101258.03;5318744;26;21019;-49
2024/04/10 05:31:30;;;;;;;0.30;0.10;;;;;;;6.63;95.86;101265.97;5316894;26;20557;-49
2024/04/10 05:33:56;;;;;;;0.30;0.20;;;;;;;7.06;95.13;101268.72;5316132;26;20535;-49
2024/04/10 05:36:23;;;;;;;0.30;0.20;;;;;;;7.92;93.43;101269.56;5312977;26;20491;-50
2024/04/10 05:38:50;;;;;;;0.30;0.20;;;;;;;8.24;89.95;101274.78;5313027;26;20587;-49
2024/04/10 05:41:16;;;;;;;0.30;0.20;;;;;;;8.56;88.34;101270.28;5313308;26;21016;-49
2024/04/10 05:43:43;;;;;;;0.30;0.20;;;;;;;8.85;86.80;101286.03;5313136;26;20475;-50
2024/04/10 05:46:10;;;;;;;0.30;0.20;;;;;;;9.12;85.38;101289.41;5312052;26;20487;-50
2024/04/10 05:48:36;;;;;;;0.30;0.20;;;;;;;9.20;85.35;101293.78;5312836;26;20631;-50
2024/04/10 05:51:04;;;;;;;0.30;0.20;;;;;;;9.55;83.61;101287.31;5312590;26;20495;-50
2024/04/10 05:53:33;;;;;;;0.30;0.20;;;;;;;9.65;83.91;101293.44;5312543;26;20523;-50
2024/04/10 05:56:06;;;;;;;0.30;0.20;;;;;;;9.48;83.29;101298.88;5312083;26;20550;-50
2024/04/10 05:58:35;;;;;;;0.33;0.20;;;;;;;9.58;83.93;101299.66;5312152;26;20487;-50
2024/04/10 06:01:07;;;;;;;0.30;0.20;;;;;;;9.37;84.87;101303.38;5312598;26;20597;-49
2024/04/10 06:03:34;;;;;;;0.30;0.20;;;;;;;9.52;83.92;101303.28;5312450;26;20479;-49
2024/04/10 06:06:09;;;;;;;0.30;0.20;;;;;;;9.55;84.39;101307.66;5312549;26;20833;-50
2024/04/10 06:08:36;;;;;;;0.30;0.20;;;;;;;9.68;84.01;101312.84;5312441;26;20470;-50
2024/04/10 06:11:03;;;;;;;0.30;0.20;;;;;;;9.71;83.92;101307.53;5312804;26;20605;-50
2024/04/10 06:13:30;;;;;;;0.30;0.20;;;;;;;9.67;82.91;101312.88;5312328;26;21040;-50
2024/04/10 06:16:01;;;;;;;0.30;0.20;;;;;;;9.71;84.09;101318.13;5312117;26;20595;-50
2024/04/10 06:18:28;;;;;;;0.30;0.20;;;;;;;9.64;83.98;101312.91;5312225;26;20919;-50
2024/04/10 06:21:02;;;;;;;0.30;0.20;;;;;;;9.82;83.63;101311.88;5312428;26;20518;-51
2024/04/10 06:23:31;;;;;;;0.30;0.20;;;;;;;10.14;82.62;101325.69;5312163;26;20517;-50
2024/04/10 06:25:58;;;;;;;0.30;0.20;;;;;;;10.11;83.29;101325.75;5312293;26;20539;-50
2024/04/10 06:28:26;;;;;;;0.30;0.20;;;;;;;10.09;83.66;101331.06;5311929;27;20569;-50
2024/04/10 06:31:00;;;;;;;0.30;0.20;;;;;;;10.04;83.53;101327.59;5312276;26;20642;-50
2024/04/10 06:33:27;;;;;;;0.30;0.20;;;;;;;9.96;84.58;101331.19;5312150;26;20535;-50
2024/04/10 06:35:58;;;;;;;0.30;0.20;;;;;;;10.13;84.10;101333.69;5311570;26;20531;-51
2024/04/10 06:38:25;;;;;;;0.30;0.20;;;;;;;10.14;84.89;101331.00;5312031;26;20479;-50
2024/04/10 06:40:56;;;;;;;0.30;0.20;;;;;;;10.03;84.91;101333.81;5311851;26;20889;-50
2024/04/10 06:43:23;;;;;;;0.30;0.20;;;;;;;10.13;85.45;101326.59;5312129;26;20487;-51
2024/04/10 06:45:56;;;;;;;0.30;0.20;;;;;;;10.24;86.00;101334.50;5311692;26;20488;-51
2024/04/10 06:48:24;;;;;;;0.30;0.20;;;;;;;10.18;85.89;101335.44;5311952;26;20533;-51
2024/04/10 06:50:56;;;;;;;0.30;0.20;;;;;;;10.15;85.74;101340.78;5311763;26;20926;-51
2024/04/10 06:53:23;;;;;;;0.30;0.20;;;;;;;10.37;84.07;101344.09;5311903;26;20475;-50
2024/04/10 06:55:54;;;;;;;0.30;0.20;;;;;;;10.21;85.33;101340.75;5311316;26;20563;-50
2024/04/10 06:58:21;;;;;;;0.30;0.20;;;;;;;10.52;83.96;101337.75;5311111;26;21062;-51
2024/04/10 07:01:04;;;;;;;0.30;0.20;;;;;;;10.73;82.81;101347.25;5311587;26;21080;-51
2024/04/10 07:03:36;;;;;;;0.30;0.20;;;;;;;10.47;84.19;101334.25;5311847;26;20864;-50
2024/04/10 07:06:07;;;;;;;0.30;0.20;;;;;;;11.09;81.89;101344.09;5311622;26;20543;-51
2024/04/10 07:08:35;;;;;;;0.30;0.20;;;;;;;11.06;81.21;101346.81;5311543;26;20589;-50
2024/04/10 07:11:14;;;;;;;0.30;0.20;;;;;;;11.08;81.62;101350.31;5311805;26;20530;-50
2024/04/10 07:13:53;;;;;;;1.17;1.17;;;;;;;10.95;81.81;101362.91;5311602;26;20601;-50
2024/04/10 07:18:09;;;;;;;0.30;0.20;;;;;;;11.04;81.13;101363.69;5544534;25;20550;-48
2024/04/10 07:20:36;;;;;;;0.30;0.20;;;;;;;11.55;81.82;101365.63;5507624;25;20854;-48
2024/04/10 07:23:04;;;;;;;0.30;0.20;;;;;;;12.05;78.82;101355.94;5507511;26;21031;-49
2024/04/10 07:25:31;;;;;;;0.30;0.20;;;;;;;12.18;77.00;101359.28;5502170;25;20481;-49
2024/04/10 07:27:57;;;;;;;0.30;0.20;;;;;;;11.96;76.95;101371.22;5470511;26;20530;-49
2024/04/10 07:30:24;;;;;;;0.30;0.20;;;;;;;12.08;76.59;101374.56;5471482;26;20473;-46
2024/04/10 07:32:53;;;;;;;0.30;0.20;;;;;;;12.39;76.50;101379.34;5470615;26;20481;-46
2024/04/10 07:35:20;;;;;;;0.30;0.20;;;;;;;12.79;75.00;101382.13;5472577;26;20477;-46
2024/04/10 07:37:47;;;;;;;0.30;0.20;;;;;;;12.44;74.47;101380.13;5476165;25;20477;-45
2024/04/10 07:40:15;;;;;;;0.30;0.20;;;;;;;12.57;74.19;101379.00;5470722;26;20473;-47
2024/04/10 07:42:42;;;;;;;0.30;0.20;;;;;;;12.52;70.68;101380.00;5470508;26;20465;-46
2024/04/10 07:45:09;;;;;;;0.30;0.20;;;;;;;12.67;71.36;101391.25;5470740;26;20469;-46
2024/04/10 07:47:35;;;;;;;0.30;0.20;;;;;;;12.65;70.69;101397.53;5461306;26;21063;-46
2024/04/10 07:50:02;;;;;;;0.30;0.20;;;;;;;12.46;70.55;101388.97;5454471;26;20594;-46
2024/04/10 07:52:30;;;;;;;0.30;0.20;;;;;;;12.55;70.33;101395.94;5462469;26;20526;-46
2024/04/10 07:54:57;;;;;;;0.30;0.20;;;;;;;12.78;69.80;101398.16;5454882;26;20473;-46
2024/04/10 07:57:23;;;;;;;0.30;0.20;;;;;;;12.71;69.47;101400.06;5470077;26;20522;-46
2024/04/10 07:59:50;;;;;;;0.30;0.20;;;;;;;12.75;70.03;101397.31;5470449;26;20533;-46
2024/04/10 08:02:18;;;;;;;0.30;0.20;;;;;;;12.88;69.04;101405.94;5470153;26;20469;-46
2024/04/10 08:04:45;;;;;;;0.30;0.20;;;;;;;12.87;69.10;101412.19;5470411;26;20529;-45
2024/04/10 08:07:11;;;;;;;0.30;0.20;;;;;;;13.12;68.25;101409.03;5468988;26;20473;-46
2024/04/10 08:09:39;;;;;;;0.30;0.20;;;;;;;13.16;68.91;101410.75;5469128;26;20473;-46
2024/04/10 08:12:06;;;;;;;0.30;0.20;;;;;;;13.37;67.96;101412.06;5469495;26;20469;-47
2024/04/10 08:14:32;;;;;;;0.30;0.20;;;;;;;13.90;66.25;101411.72;5470373;26;20536;-45
2024/04/10 08:16:59;;;;;;;0.30;0.20;;;;;;;13.59;64.19;101422.25;5475992;26;20556;-46
2024/04/10 08:19:26;;;;;;;0.30;0.20;;;;;;;13.79;62.92;101427.13;5484425;25;20952;-46
2024/04/10 08:21:52;;;;;;;0.30;0.20;;;;;;;13.67;64.60;101426.53;5469989;26;21013;-45
2024/04/10 08:24:19;;;;;;;0.30;0.20;;;;;;;14.14;64.87;101425.41;5470175;26;20593;-46
2024/04/10 08:26:45;;;;;;;0.30;0.20;;;;;;;14.38;62.30;101422.09;5469958;26;20480;-46
2024/04/10 08:29:12;;;;;;;0.30;0.20;;;;;;;14.39;61.82;101418.53;5454918;26;20518;-46
2024/04/10 08:31:39;;;;;;;0.30;0.20;;;;;;;13.96;62.53;101424.03;5454348;26;20493;-46
2024/04/10 08:34:05;;;;;;;0.30;0.20;;;;;;;14.12;62.48;101424.56;5454537;26;20563;-46
2024/04/10 08:36:33;;;;;;;0.30;0.20;;;;;;;14.34;62.23;101425.78;5454269;26;20485;-46
2024/04/10 08:39:00;;;;;;;0.30;0.20;;;;;;;14.49;61.94;101436.09;5454422;26;21069;-46
2024/04/10 08:41:27;;;;;;;0.30;0.20;;;;;;;14.82;60.00;101437.00;5454358;26;20477;-46
2024/04/10 08:43:55;;;;;;;0.30;0.20;;;;;;;14.42;62.35;101437.16;5454188;26;20821;-46
2024/04/10 08:46:25;;;;;;;0.40;0.20;;;;;;;14.50;60.88;101448.56;5452226;26;20613;-46
2024/04/10 08:48:56;;;;;;;0.33;0.20;;;;;;;14.85;58.26;101452.09;5430213;26;20530;-46
2024/04/10 08:51:25;;;;;;;0.30;0.20;;;;;;;15.38;58.88;101447.88;5454099;26;20521;-46
2024/04/10 08:53:54;;;;;;;0.30;0.20;;;;;;;15.84;57.22;101456.34;5429853;26;21076;-48
2024/04/10 08:56:21;;;;;;;0.30;0.20;;;;;;;14.95;58.15;101461.66;5454241;26;20526;-46
2024/04/10 08:58:48;;;;;;;0.30;0.20;;;;;;;14.54;59.07;101464.56;5454160;26;20522;-45
2024/04/10 09:01:27;;;;;;;0.30;0.20;;;;;;;15.54;58.30;101461.69;5454303;26;20526;-46
2024/04/10 09:03:55;;;;;;;0.30;0.20;;;;;;;15.55;56.48;101467.94;5453846;26;20469;-48
2024/04/10 09:06:22;;;;;;;0.30;0.20;;;;;;;14.89;58.24;101469.81;5454140;26;20482;-46
2024/04/10 09:08:59;;;;;;;0.30;0.20;;;;;;;15.32;57.83;101477.53;5453635;26;21073;-46
2024/04/10 09:11:26;;;;;;;0.30;0.20;;;;;;;15.27;57.04;101492.88;5453948;26;20549;-47
2024/04/10 09:14:10;;;;;;;0.30;0.20;;;;;;;15.09;54.71;101496.94;5453791;26;20557;-46
2024/04/10 09:16:39;;;;;;;0.40;0.20;;;;;;;14.92;56.01;101495.63;5454501;26;21021;-46
2024/04/10 09:19:12;;;;;;;0.30;0.20;;;;;;;15.27;55.25;101490.19;5473030;26;20529;-46
2024/04/10 09:21:40;;;;;;;0.30;0.20;;;;;;;15.87;53.69;101497.34;5453480;26;20481;-46
2024/04/10 09:24:10;;;;;;;0.30;0.20;;;;;;;15.44;53.16;101488.81;5453703;26;20554;-46
2024/04/10 09:26:41;;;;;;;0.40;0.20;;;;;;;15.11;54.50;101486.19;5453098;26;20474;-46
2024/04/10 09:29:10;;;;;;;0.40;0.20;;;;;;;15.75;55.03;101478.06;5453603;26;20470;-46
2024/04/10 09:31:36;;;;;;;0.30;0.20;;;;;;;15.92;53.55;101484.69;5453228;26;20485;-46
2024/04/10 09:34:06;;;;;;;0.30;0.20;;;;;;;15.92;51.47;101478.44;5453687;26;20481;-47
2024/04/10 09:36:33;;;;;;;0.40;0.20;;;;;;;15.08;53.80;101471.09;5453253;26;20485;-47
2024/04/10 09:39:00;;;;;;;0.40;0.20;;;;;;;15.33;56.26;101462.31;5453359;26;20485;-47
2024/04/10 09:41:28;;;;;;;0.40;0.20;;;;;;;15.37;54.22;101472.06;5453389;26;20582;-47
2024/04/10 09:43:55;;;;;;;0.40;0.20;;;;;;;16.04;50.91;101469.13;5453340;26;20481;-48
2024/04/10 09:46:22;;;;;;;0.40;0.20;;;;;;;16.00;52.08;101466.53;5453291;26;20477;-47
2024/04/10 09:48:53;;;;;;;0.40;0.20;;;;;;;15.40;52.43;101466.59;5429207;26;20467;-47
2024/04/10 09:51:21;;;;;;;0.30;0.20;;;;;;;15.46;51.64;101462.84;5453452;26;20522;-46
2024/04/10 09:53:48;;;;;;;0.33;0.20;;;;;;;15.35;50.62;101473.88;5428879;26;20519;-47
2024/04/10 09:56:16;;;;;;;0.30;0.20;;;;;;;15.62;50.71;101480.25;5453151;26;20478;-47
2024/04/10 09:58:45;;;;;;;0.40;0.20;;;;;;;16.34;50.11;101488.72;5451497;26;20522;-46
2024/04/10 10:01:11;;;;;;;0.40;0.20;;;;;;;16.35;48.90;101479.72;5453313;26;20466;-46
2024/04/10 10:03:38;;;;;;;0.30;0.20;;;;;;;16.07;49.51;101485.13;5453200;26;20917;-46
2024/04/10 10:06:07;;;;;;;0.40;0.20;;;;;;;16.15;48.51;101478.56;5453164;26;20474;-47
2024/04/10 10:08:35;;;;;;;0.40;0.20;;;;;;;16.94;49.36;101476.81;5452817;26;20614;-46
2024/04/10 10:11:05;;;;;;;0.40;0.20;;;;;;;17.24;47.68;101478.38;5453115;26;20530;-47
2024/04/10 10:13:43;;;;;;;0.40;0.20;;;;;;;16.96;45.82;101483.88;5452916;26;20489;-47
2024/04/10 10:16:12;;;;;;;0.40;0.20;;;;;;;16.05;47.05;101477.13;5452688;26;20549;-47
2024/04/10 10:18:39;;;;;;;0.40;0.20;;;;;;;15.81;47.29;101475.22;5474620;26;20549;-47
2024/04/10 10:21:08;;;;;;;0.40;0.20;;;;;;;15.98;48.50;101472.88;5452700;26;20558;-47
2024/04/10 10:23:36;;;;;;;0.40;0.20;;;;;;;15.80;48.79;101476.16;5452707;26;20591;-48
2024/04/10 10:26:05;;;;;;;0.40;0.20;;;;;;;15.72;49.94;101475.50;5452786;26;20482;-47
2024/04/10 10:28:31;;;;;;;0.40;0.20;;;;;;;15.80;50.10;101474.34;5452791;26;20583;-47
2024/04/10 10:31:14;;;;;;;0.40;0.20;;;;;;;16.00;50.41;101476.38;5452875;26;20980;-49
2024/04/10 10:33:42;;;;;;;0.40;0.20;;;;;;;15.40;48.89;101483.56;5416912;26;20530;-47
2024/04/10 10:36:09;;;;;;;0.40;0.20;;;;;;;15.69;48.61;101482.72;5473705;26;20545;-47
2024/04/10 10:38:37;;;;;;;0.40;0.20;;;;;;;16.08;48.49;101490.44;5452536;26;20478;-47
2024/04/10 10:41:08;;;;;;;0.40;0.20;;;;;;;16.03;47.58;101481.63;5452321;26;21077;-46
2024/04/10 10:43:44;;;;;;;0.30;0.20;;;;;;;15.82;50.04;101491.25;5452341;26;20545;-46
2024/04/10 10:46:10;;;;;;;0.33;0.20;;;;;;;15.53;49.08;101494.78;5449864;26;20473;-46
2024/04/10 10:48:37;;;;;;;0.30;0.20;;;;;;;15.83;49.33;101489.44;5430619;26;20519;-49
2024/04/10 10:51:04;;;;;;;0.33;0.20;;;;;;;15.59;49.46;101489.25;5449385;26;20529;-46
2024/04/10 10:53:31;;;;;;;0.30;0.20;;;;;;;15.42;49.31;101486.19;5428737;26;20475;-46
2024/04/10 10:55:58;;;;;;;0.30;0.20;;;;;;;15.13;49.46;101487.03;5450256;26;20594;-46
2024/04/10 10:58:27;;;;;;;0.40;0.20;;;;;;;15.62;49.12;101483.84;5451797;26;20537;-46
2024/04/10 11:00:54;;;;;;;0.30;0.20;;;;;;;15.94;48.81;101482.84;5452084;26;20518;-46
2024/04/10 11:03:22;;;;;;;0.40;0.20;;;;;;;16.32;48.27;101485.22;5452133;26;20489;-50
2024/04/10 11:06:06;;;;;;;0.40;0.20;;;;;;;16.22;46.37;101480.13;5416244;26;20475;-46
2024/04/10 11:08:33;;;;;;;0.40;0.20;;;;;;;16.16;47.08;101482.13;5444850;26;20477;-46
2024/04/10 11:10:59;;;;;;;0.40;0.20;;;;;;;16.23;47.49;101479.22;5451905;26;20470;-46
2024/04/10 11:13:26;;;;;;;0.40;0.20;;;;;;;15.99;46.99;101485.34;5451867;26;20526;-47
2024/04/10 11:15:57;;;;;;;0.40;0.20;;;;;;;16.62;47.60;101488.66;5451638;26;21060;-46
2024/04/10 11:18:24;;;;;;;0.40;0.20;;;;;;;16.63;47.84;101485.91;5472932;26;20478;-47
2024/04/10 11:20:52;;;;;;;0.40;0.20;;;;;;;17.17;47.54;101487.63;5451448;26;20473;-46
2024/04/10 11:23:19;;;;;;;0.40;0.20;;;;;;;17.37;45.84;101484.19;5451596;26;20446;-46
2024/04/10 11:25:46;;;;;;;0.40;0.20;;;;;;;16.87;46.42;101479.72;5451478;26;20493;-46
2024/04/10 11:28:13;;;;;;;0.40;0.20;;;;;;;16.82;47.17;101487.06;5451648;26;20522;-47
2024/04/10 11:30:40;;;;;;;0.40;0.20;;;;;;;17.24;46.21;101478.38;5451793;26;20473;-46
2024/04/10 11:33:07;;;;;;;0.40;0.20;;;;;;;17.61;45.69;101482.38;5451476;26;20518;-46
2024/04/10 11:35:38;;;;;;;0.40;0.20;;;;;;;17.69;44.15;101477.63;5451330;26;20478;-47